Civril, Turkey
Current Conditions -  °F | °C
As of 6:50 PM on Saturday 20 Dec 2014 (Local Time) from LTAY Reporting Station
Clear Clear  
Wind Chill: 39°   Ceiling: Unl
Heat Index: 39°   Visibility: 6mi
Dew Point: 34°   Wind: 3mph
Humidity: 81%   Direction: 150°SSE
Pressure: 30.15"   Gusts: NA
Location:  38.3°N, 29.74°E
Report Text: LTAY 201550Z 15003KT 140V220 CAVOK 04/01 Q1021
Loading
Personal Weather Stations






























Interactive Weather Map New forecast layout! Learn more

10-Day Weather Forecast

Advertisements
Track Severe Weather on mobile